Lehmann Sound — V2EM3 — position and weather

sailwx.info

Track history (hours):
 
Tides and Currents Weather Stations Pressure Air Temp Water Temp Dewpoint Dewpoint Depression Visibility Wind Speed Wind Dir Waves Ship Positions

Lehmann Sound

Last reported at 2017-Jul-12 23:54 UTC. Time now 2017-Aug-17 01:48 UTC.
Position N 59°16' E 017°35'.
Warning: this ship's position is 35 days out of date.

Length 90 m; draft 4.3 m.

Type: Cargo ship. MMSI: 305476000.

Date/timePositionNaut miles runAvg speedWind from/ knotsBaromVisibWave heightAir tempDewpointWater temp
2017-Jul-12 23:54N 59°16' E 017°35'4 9.5
2017-Jul-12 23:30N 59°19' E 017°32'5 9.4
2017-Jul-12 23:00N 59°23' E 017°26'42 0.9
2017-Jul-10 23:09N 59°29' E 016°04'1 7.3
2017-Jul-10 23:00N 59°28' E 016°06'4 7.8
2017-Jul-10 22:25N 59°27' E 016°14'3 8.4
2017-Jul-10 22:00N 59°27' E 016°21'5 9.2
2017-Jul-10 21:30N 59°28' E 016°30'4 8.5
2017-Jul-10 21:00N 59°31' E 016°36'22 7.0
2017-Jul-10 17:51N 59°27' E 017°18'4 8.8
2017-Jul-10 17:27N 59°25' E 017°24'6 9.3
2017-Jul-10 16:47N 59°20' E 017°30'3 9.1
2017-Jul-10 16:30N 59°18' E 017°34'32 7.3
2017-Jul-10 12:04N 58°46' E 017°47'1 9.3
2017-Jul-10 11:58N 58°46' E 017°49'14 8.6
2017-Jul-10 10:18N 58°36' E 018°09'20 9.0
2017-Jul-10 08:01N 58°24' E 018°41'2 9.0
2017-Jul-10 07:49N 58°23' E 018°44'3 8.9
2017-Jul-10 07:29N 58°21' E 018°48'165 3.4
2017-Jul-08 06:59N 55°37' E 018°37'40 9.0
2017-Jul-08 02:37N 55°32' E 017°28'1 9.0
2017-Jul-08 02:31N 55°32' E 017°26'13 9.0
2017-Jul-08 01:06N 55°31' E 017°04'4 8.9
2017-Jul-08 00:36N 55°31' E 016°56'1 8.9
2017-Jul-08 00:30N 55°31' E 016°55'4 8.8
2017-Jul-08 00:01N 55°30' E 016°47'4 8.9
2017-Jul-07 23:31N 55°30' E 016°39'5 9.2
2017-Jul-07 23:01N 55°29' E 016°31'5 9.3
2017-Jul-07 22:31N 55°29' E 016°23'5 9.1
2017-Jul-07 22:01N 55°28' E 016°15'5 9.0
2017-Jul-07 21:30N 55°28' E 016°07'5 9.2
2017-Jul-07 21:01N 55°27' E 015°59'5 9.3
2017-Jul-07 20:31N 55°27' E 015°51'5 9.3
2017-Jul-07 20:01N 55°27' E 015°43'5 9.2
2017-Jul-07 19:30N 55°26' E 015°35'5 9.2
2017-Jul-07 19:01N 55°26' E 015°27'5 9.2
2017-Jul-07 18:31N 55°25' E 015°18'5 9.1
2017-Jul-07 18:00N 55°25' E 015°10'4 9.1
2017-Jul-07 17:30N 55°24' E 015°02'5 9.0
2017-Jul-07 16:59N 55°24' E 014°54'4 8.8
2017-Jul-07 16:30N 55°23' E 014°47'4 8.5
2017-Jul-07 16:01N 55°23' E 014°40'5 9.1
2017-Jul-07 15:29N 55°19' E 014°34'4 8.8
2017-Jul-07 15:01N 55°16' E 014°29'9 8.9
2017-Jul-07 14:00N 55°10' E 014°18'4 8.0
2017-Jul-07 13:30N 55°10' E 014°11'4 8.5
2017-Jul-07 12:59N 55°10' E 014°03'4 8.4
2017-Jul-07 12:30N 55°11' E 013°56'4 8.5
2017-Jul-07 12:00N 55°11' E 013°49'5 8.5
2017-Jul-07 11:27N 55°11' E 013°41'4 8.4
2017-Jul-07 11:00N 55°12' E 013°34'4 8.6
2017-Jul-07 10:30N 55°12' E 013°27'4 8.6
2017-Jul-07 10:00N 55°13' E 013°19'4 8.9
2017-Jul-07 09:31N 55°13' E 013°12'5 8.9
2017-Jul-07 08:58N 55°14' E 013°03'4 9.0
2017-Jul-07 08:30N 55°14' E 012°56'4 8.6
2017-Jul-07 08:00N 55°16' E 012°49'4 8.8
2017-Jul-07 07:30N 55°17' E 012°42'3 6.8
2017-Jul-07 07:01N 55°20' E 012°38'4 8.7
2017-Jul-07 06:31N 55°24' E 012°40'4 8.7
2017-Jul-07 06:01N 55°29' E 012°41'4 8.3
2017-Jul-07 05:31N 55°33' E 012°42'4 7.8
2017-Jul-07 05:01N 55°37' E 012°42'4 7.5
2017-Jul-07 04:31N 55°40' E 012°41'4 7.6
2017-Jul-07 04:01N 55°44' E 012°41'4 7.9
2017-Jul-07 03:31N 55°48' E 012°42'4 7.9
2017-Jul-07 03:01N 55°52' E 012°40'4 8.1
2017-Jul-07 02:30N 55°56' E 012°38'4 8.0
2017-Jul-07 02:01N 55°60' E 012°38'4 7.5
2017-Jul-07 01:31N 56°03' E 012°38'3 6.5
2017-Jul-07 01:01N 56°06' E 012°34'3 6.8
2017-Jul-07 00:31N 56°08' E 012°29'4 7.7
2017-Jul-07 00:01N 56°10' E 012°24'4 7.4
2017-Jul-06 23:30N 56°14' E 012°24'2 8.1
2017-Jul-06 23:16N 56°16' E 012°24'37 0.9
2017-Jul-05 05:18N 56°53' E 012°28'19 7.2
2017-Jul-05 02:39N 56°34' E 012°25'6 7.4
2017-Jul-05 01:49N 56°28' E 012°25'3 7.8
2017-Jul-05 01:25N 56°25' E 012°25'3 7.7
2017-Jul-05 01:00N 56°22' E 012°25'4 7.4
2017-Jul-05 00:28N 56°18' E 012°25'3 7.4
2017-Jul-05 00:00N 56°15' E 012°27'4 7.5
2017-Jul-04 23:30N 56°11' E 012°29'4 7.5
2017-Jul-04 23:00N 56°08' E 012°32'4 7.4
2017-Jul-04 22:30N 56°05' E 012°37'4 7.2
2017-Jul-04 22:00N 56°02' E 012°40'4 7.3
2017-Jul-04 21:30N 55°59' E 012°42'4 7.6
2017-Jul-04 21:00N 55°55' E 012°45'4 7.3
2017-Jul-04 20:30N 55°51' E 012°44'4 7.7
2017-Jul-04 20:00N 55°48' E 012°43'4 7.8
2017-Jul-04 19:30N 55°44' E 012°42'4 7.6
2017-Jul-04 19:00N 55°40' E 012°42'4 7.2
2017-Jul-04 18:30N 55°36' E 012°42'4 7.4
2017-Jul-04 18:00N 55°33' E 012°43'4 7.0
2017-Jul-04 17:30N 55°29' E 012°43'4 7.6
2017-Jul-04 17:00N 55°25' E 012°42'4 7.7
2017-Jul-04 16:30N 55°22' E 012°41'4 7.3
2017-Jul-04 16:01N 55°18' E 012°43'4 7.6
2017-Jul-04 15:30N 55°17' E 012°49'4 7.4
2017-Jul-04 15:00N 55°16' E 012°56'8 7.7
2017-Jul-04 14:00N 55°15' E 013°09'4 7.2
2017-Jul-04 13:30N 55°15' E 013°15'4 7.4
2017-Jul-04 13:00N 55°15' E 013°22'4 7.5
2017-Jul-04 12:30N 55°15' E 013°28'4 7.6
2017-Jul-04 12:00N 55°15' E 013°35'4 7.5
2017-Jul-04 11:30N 55°14' E 013°42'4 7.6
2017-Jul-04 11:00N 55°14' E 013°48'4 7.8
2017-Jul-04 10:30N 55°14' E 013°55'4 7.6
2017-Jul-04 10:00N 55°14' E 014°02'4 7.5
2017-Jul-04 09:30N 55°14' E 014°08'4 7.4
2017-Jul-04 09:00N 55°13' E 014°15'4 7.4
2017-Jul-04 08:30N 55°16' E 014°19'4 8.0
2017-Jul-04 08:00N 55°19' E 014°24'4 8.3
2017-Jul-04 07:30N 55°23' E 014°28'4 8.1
2017-Jul-04 07:00N 55°25' E 014°34'4 8.2
2017-Jul-04 06:30N 55°27' E 014°40'4 8.0
2017-Jul-04 06:00N 55°28' E 014°47'4 7.9
2017-Jul-04 05:30N 55°29' E 014°54'4 7.7
2017-Jul-04 05:00N 55°30' E 015°00'4 7.8
2017-Jul-04 04:30N 55°31' E 015°07'4 7.7
2017-Jul-04 03:58N 55°31' E 015°14'4 7.7
2017-Jul-04 03:30N 55°31' E 015°21'4 7.6
2017-Jul-04 02:59N 55°31' E 015°28'4 7.7
2017-Jul-04 02:28N 55°32' E 015°35'  
Track history (hours):
 
Tides and Currents Weather Stations Pressure Air Temp Water Temp Dewpoint Dewpoint Depression Visibility Wind Speed Wind Dir Waves Ship Positions

Lehmann Sound

Last reported at 2017-Jul-12 23:54 UTC. Time now 2017-Aug-17 01:48 UTC.
Position N 59°16' E 017°35'.
Warning: this ship's position is 35 days out of date.

Length 90 m; draft 4.3 m.

Type: Cargo ship. MMSI: 305476000.

Date/timePositionNaut miles runAvg speedWind from/ knotsBaromVisibWave heightAir tempDewpointWater temp
2017-Jul-12 23:54N 59°16' E 017°35'4 9.5
2017-Jul-12 23:30N 59°19' E 017°32'5 9.4
2017-Jul-12 23:00N 59°23' E 017°26'42 0.9
2017-Jul-10 23:09N 59°29' E 016°04'1 7.3
2017-Jul-10 23:00N 59°28' E 016°06'4 7.8
2017-Jul-10 22:25N 59°27' E 016°14'3 8.4
2017-Jul-10 22:00N 59°27' E 016°21'5 9.2
2017-Jul-10 21:30N 59°28' E 016°30'4 8.5
2017-Jul-10 21:00N 59°31' E 016°36'22 7.0
2017-Jul-10 17:51N 59°27' E 017°18'4 8.8
2017-Jul-10 17:27N 59°25' E 017°24'6 9.3
2017-Jul-10 16:47N 59°20' E 017°30'3 9.1
2017-Jul-10 16:30N 59°18' E 017°34'32 7.3
2017-Jul-10 12:04N 58°46' E 017°47'1 9.3
2017-Jul-10 11:58N 58°46' E 017°49'14 8.6
2017-Jul-10 10:18N 58°36' E 018°09'20 9.0
2017-Jul-10 08:01N 58°24' E 018°41'2 9.0
2017-Jul-10 07:49N 58°23' E 018°44'3 8.9
2017-Jul-10 07:29N 58°21' E 018°48'165 3.4
2017-Jul-08 06:59N 55°37' E 018°37'40 9.0
2017-Jul-08 02:37N 55°32' E 017°28'1 9.0
2017-Jul-08 02:31N 55°32' E 017°26'13 9.0
2017-Jul-08 01:06N 55°31' E 017°04'4 8.9
2017-Jul-08 00:36N 55°31' E 016°56'1 8.9
2017-Jul-08 00:30N 55°31' E 016°55'4 8.8
2017-Jul-08 00:01N 55°30' E 016°47'4 8.9
2017-Jul-07 23:31N 55°30' E 016°39'5 9.2
2017-Jul-07 23:01N 55°29' E 016°31'5 9.3
2017-Jul-07 22:31N 55°29' E 016°23'5 9.1
2017-Jul-07 22:01N 55°28' E 016°15'5 9.0
2017-Jul-07 21:30N 55°28' E 016°07'5 9.2
2017-Jul-07 21:01N 55°27' E 015°59'5 9.3
2017-Jul-07 20:31N 55°27' E 015°51'5 9.3
2017-Jul-07 20:01N 55°27' E 015°43'5 9.2
2017-Jul-07 19:30N 55°26' E 015°35'5 9.2
2017-Jul-07 19:01N 55°26' E 015°27'5 9.2
2017-Jul-07 18:31N 55°25' E 015°18'5 9.1
2017-Jul-07 18:00N 55°25' E 015°10'4 9.1
2017-Jul-07 17:30N 55°24' E 015°02'5 9.0
2017-Jul-07 16:59N 55°24' E 014°54'4 8.8
2017-Jul-07 16:30N 55°23' E 014°47'4 8.5
2017-Jul-07 16:01N 55°23' E 014°40'5 9.1
2017-Jul-07 15:29N 55°19' E 014°34'4 8.8
2017-Jul-07 15:01N 55°16' E 014°29'9 8.9
2017-Jul-07 14:00N 55°10' E 014°18'4 8.0
2017-Jul-07 13:30N 55°10' E 014°11'4 8.5
2017-Jul-07 12:59N 55°10' E 014°03'4 8.4
2017-Jul-07 12:30N 55°11' E 013°56'4 8.5
2017-Jul-07 12:00N 55°11' E 013°49'5 8.5
2017-Jul-07 11:27N 55°11' E 013°41'4 8.4
2017-Jul-07 11:00N 55°12' E 013°34'4 8.6
2017-Jul-07 10:30N 55°12' E 013°27'4 8.6
2017-Jul-07 10:00N 55°13' E 013°19'4 8.9
2017-Jul-07 09:31N 55°13' E 013°12'5 8.9
2017-Jul-07 08:58N 55°14' E 013°03'4 9.0
2017-Jul-07 08:30N 55°14' E 012°56'4 8.6
2017-Jul-07 08:00N 55°16' E 012°49'4 8.8
2017-Jul-07 07:30N 55°17' E 012°42'3 6.8
2017-Jul-07 07:01N 55°20' E 012°38'4 8.7
2017-Jul-07 06:31N 55°24' E 012°40'4 8.7
2017-Jul-07 06:01N 55°29' E 012°41'4 8.3
2017-Jul-07 05:31N 55°33' E 012°42'4 7.8
2017-Jul-07 05:01N 55°37' E 012°42'4 7.5
2017-Jul-07 04:31N 55°40' E 012°41'4 7.6
2017-Jul-07 04:01N 55°44' E 012°41'4 7.9
2017-Jul-07 03:31N 55°48' E 012°42'4 7.9
2017-Jul-07 03:01N 55°52' E 012°40'4 8.1
2017-Jul-07 02:30N 55°56' E 012°38'4 8.0
2017-Jul-07 02:01N 55°60' E 012°38'4 7.5
2017-Jul-07 01:31N 56°03' E 012°38'3 6.5
2017-Jul-07 01:01N 56°06' E 012°34'3 6.8
2017-Jul-07 00:31N 56°08' E 012°29'4 7.7
2017-Jul-07 00:01N 56°10' E 012°24'4 7.4
2017-Jul-06 23:30N 56°14' E 012°24'2 8.1
2017-Jul-06 23:16N 56°16' E 012°24'37 0.9
2017-Jul-05 05:18N 56°53' E 012°28'19 7.2
2017-Jul-05 02:39N 56°34' E 012°25'6 7.4
2017-Jul-05 01:49N 56°28' E 012°25'3 7.8
2017-Jul-05 01:25N 56°25' E 012°25'3 7.7
2017-Jul-05 01:00N 56°22' E 012°25'4 7.4
2017-Jul-05 00:28N 56°18' E 012°25'3 7.4
2017-Jul-05 00:00N 56°15' E 012°27'4 7.5
2017-Jul-04 23:30N 56°11' E 012°29'4 7.5
2017-Jul-04 23:00N 56°08' E 012°32'4 7.4
2017-Jul-04 22:30N 56°05' E 012°37'4 7.2
2017-Jul-04 22:00N 56°02' E 012°40'4 7.3
2017-Jul-04 21:30N 55°59' E 012°42'4 7.6
2017-Jul-04 21:00N 55°55' E 012°45'4 7.3
2017-Jul-04 20:30N 55°51' E 012°44'4 7.7
2017-Jul-04 20:00N 55°48' E 012°43'4 7.8
2017-Jul-04 19:30N 55°44' E 012°42'4 7.6
2017-Jul-04 19:00N 55°40' E 012°42'4 7.2
2017-Jul-04 18:30N 55°36' E 012°42'4 7.4
2017-Jul-04 18:00N 55°33' E 012°43'4 7.0
2017-Jul-04 17:30N 55°29' E 012°43'4 7.6
2017-Jul-04 17:00N 55°25' E 012°42'4 7.7
2017-Jul-04 16:30N 55°22' E 012°41'4 7.3
2017-Jul-04 16:01N 55°18' E 012°43'4 7.6
2017-Jul-04 15:30N 55°17' E 012°49'4 7.4
2017-Jul-04 15:00N 55°16' E 012°56'8 7.7
2017-Jul-04 14:00N 55°15' E 013°09'4 7.2
2017-Jul-04 13:30N 55°15' E 013°15'4 7.4
2017-Jul-04 13:00N 55°15' E 013°22'4 7.5
2017-Jul-04 12:30N 55°15' E 013°28'4 7.6
2017-Jul-04 12:00N 55°15' E 013°35'4 7.5
2017-Jul-04 11:30N 55°14' E 013°42'4 7.6
2017-Jul-04 11:00N 55°14' E 013°48'4 7.8
2017-Jul-04 10:30N 55°14' E 013°55'4 7.6
2017-Jul-04 10:00N 55°14' E 014°02'4 7.5
2017-Jul-04 09:30N 55°14' E 014°08'4 7.4
2017-Jul-04 09:00N 55°13' E 014°15'4 7.4
2017-Jul-04 08:30N 55°16' E 014°19'4 8.0
2017-Jul-04 08:00N 55°19' E 014°24'4 8.3
2017-Jul-04 07:30N 55°23' E 014°28'4 8.1
2017-Jul-04 07:00N 55°25' E 014°34'4 8.2
2017-Jul-04 06:30N 55°27' E 014°40'4 8.0
2017-Jul-04 06:00N 55°28' E 014°47'4 7.9
2017-Jul-04 05:30N 55°29' E 014°54'4 7.7
2017-Jul-04 05:00N 55°30' E 015°00'4 7.8
2017-Jul-04 04:30N 55°31' E 015°07'4 7.7
2017-Jul-04 03:58N 55°31' E 015°14'4 7.7
2017-Jul-04 03:30N 55°31' E 015°21'4 7.6
2017-Jul-04 02:59N 55°31' E 015°28'4 7.7
2017-Jul-04 02:28N 55°32' E 015°35'  

Dump ship's entire track history